createdAt,value
2019-03-18T00:03:26.078Z,99891.64
2019-03-18T00:07:29.718Z,99885.29
2019-03-18T00:11:33.470Z,99888.83
2019-03-18T00:15:37.041Z,99891.02
2019-03-18T00:19:42.822Z,99887.37
2019-03-18T00:23:46.031Z,99887.37
2019-03-18T00:27:49.688Z,99908.08
2019-03-18T00:31:53.451Z,99905.53
2019-03-18T00:35:57.269Z,99903.47
2019-03-18T00:40:01.099Z,99889.39
2019-03-18T00:44:04.807Z,99886.11
2019-03-18T00:48:08.620Z,99903.73
2019-03-18T00:52:12.383Z,99901.65
2019-03-18T00:56:15.934Z,99896.30
2019-03-18T01:00:20.124Z,99900.56
2019-03-18T01:04:23.661Z,99903.64
2019-03-18T01:08:27.451Z,99902.36
2019-03-18T01:12:31.061Z,99900.81
2019-03-18T01:16:34.805Z,99903.73
2019-03-18T01:20:38.480Z,99908.73
2019-03-18T01:24:42.159Z,99909.63
2019-03-18T01:28:45.817Z,99913.98
2019-03-18T01:32:49.718Z,99911.81
2019-03-18T01:36:53.432Z,99908.09
2019-03-18T01:40:57.139Z,99902.18
2019-03-18T01:45:03.522Z,99905.27
2019-03-18T01:49:07.131Z,99915.98
2019-03-18T01:53:11.053Z,99914.73
2019-03-18T01:57:14.616Z,99919.55
2019-03-18T02:01:18.149Z,99922.17
2019-03-18T02:05:21.863Z,99931.35
2019-03-18T02:09:25.517Z,99930.80
2019-03-18T02:13:29.116Z,99929.80
2019-03-18T02:17:32.897Z,99930.72
2019-03-18T02:21:36.676Z,99936.71
2019-03-18T02:25:40.305Z,99934.35
2019-03-18T02:29:44.141Z,99931.95
2019-03-18T02:33:47.967Z,99931.78
2019-03-18T02:37:51.637Z,99946.49
2019-03-18T02:41:55.377Z,99952.39
2019-03-18T02:46:10.021Z,99938.14
2019-03-18T02:50:05.799Z,99947.86
2019-03-18T02:54:09.581Z,99931.60
2019-03-18T02:58:13.253Z,99948.40
2019-03-18T03:02:16.816Z,99948.95
2019-03-18T03:06:20.436Z,99953.03
2019-03-18T03:10:24.254Z,99945.86
2019-03-18T03:14:27.791Z,99947.12
2019-03-18T03:18:31.417Z,99944.75
2019-03-18T03:22:35.079Z,99937.31
2019-03-18T03:26:38.671Z,99950.56
2019-03-18T03:30:42.267Z,99946.40
2019-03-18T03:34:46.048Z,99968.38
2019-03-18T03:38:49.762Z,99974.65
2019-03-18T03:42:53.578Z,99972.02
2019-03-18T03:46:57.451Z,99980.19
2019-03-18T03:51:01.273Z,99985.09
2019-03-18T03:55:06.664Z,99981.64
2019-03-18T03:59:10.419Z,99981.36
2019-03-18T04:03:14.075Z,99987.98
2019-03-18T04:07:18.084Z,99987.91
2019-03-18T04:11:21.681Z,99982.55
2019-03-18T04:15:25.311Z,99995.26
2019-03-18T04:19:29.219Z,100008.20
2019-03-18T04:23:32.830Z,100004.53
2019-03-18T04:27:36.698Z,100005.71
2019-03-18T04:31:41.506Z,100016.42
2019-03-18T04:35:45.302Z,100008.84
2019-03-18T04:39:49.064Z,100015.74
2019-03-18T04:43:52.688Z,100019.65
2019-03-18T04:47:56.294Z,100020.37
2019-03-18T04:51:59.860Z,100022.14
2019-03-18T04:56:03.564Z,100032.09
2019-03-18T05:00:10.653Z,100040.16
2019-03-18T05:04:14.155Z,100051.09
2019-03-18T05:08:17.798Z,100056.55
2019-03-18T05:12:21.377Z,100060.26
2019-03-18T05:16:25.048Z,100058.63
2019-03-18T05:20:28.609Z,100067.17
2019-03-18T05:24:32.178Z,100068.64
2019-03-18T05:28:35.789Z,100078.45
2019-03-18T05:32:39.467Z,100076.33
2019-03-18T05:36:43.166Z,100080.59
2019-03-18T05:40:46.957Z,100082.52
2019-03-18T05:44:50.654Z,100075.05
2019-03-18T05:48:54.259Z,100083.97
2019-03-18T05:52:58.046Z,100082.70
2019-03-18T05:57:01.693Z,100087.23
2019-03-18T06:01:05.919Z,100099.80
2019-03-18T06:05:11.121Z,100107.43
2019-03-18T06:09:14.940Z,100109.61
2019-03-18T06:13:18.595Z,100123.97
2019-03-18T06:17:22.104Z,100127.97
2019-03-18T06:21:25.607Z,100138.55
2019-03-18T06:25:35.049Z,100137.91
2019-03-18T06:29:44.073Z,100152.55
2019-03-18T06:34:12.352Z,100151.28
2019-03-18T06:38:18.451Z,100159.83
2019-03-18T06:42:30.817Z,100163.02
2019-03-18T06:46:51.593Z,100172.11
2019-03-18T06:51:05.178Z,100171.63
2019-03-18T06:55:11.979Z,100176.56
2019-03-18T06:59:25.368Z,100177.62
2019-03-18T07:03:44.627Z,100174.19
2019-03-18T07:07:55.204Z,100192.95
2019-03-18T07:12:01.814Z,100187.94
2019-03-18T07:16:17.303Z,100202.23
2019-03-18T07:20:25.836Z,100208.59
2019-03-18T07:24:37.181Z,100204.40
2019-03-18T07:28:50.817Z,100212.52
2019-03-18T07:32:54.371Z,100216.71
2019-03-18T07:36:57.965Z,100212.79
2019-03-18T07:41:09.690Z,100207.77
2019-03-18T07:45:16.019Z,100222.92
2019-03-18T07:49:19.837Z,100237.80
2019-03-18T07:53:23.314Z,100242.53
2019-03-18T07:57:26.824Z,100252.81
2019-03-18T08:01:30.327Z,100259.31
2019-03-18T08:05:33.825Z,100264.10
2019-03-18T08:09:37.418Z,100258.94
2019-03-18T08:13:40.963Z,100273.89
2019-03-18T08:17:48.124Z,100259.45
2019-03-18T08:21:52.391Z,100260.55
2019-03-18T08:25:56.924Z,100257.44
2019-03-18T08:30:00.883Z,100264.81
2019-03-18T08:34:04.734Z,100278.23
2019-03-18T08:38:14.622Z,100284.46
2019-03-18T08:42:18.226Z,100280.95
2019-03-18T08:46:35.390Z,100287.08
2019-03-18T08:55:28.102Z,100304.34
2019-03-18T08:59:32.372Z,100311.34
2019-03-18T09:03:41.270Z,100311.27
2019-03-18T09:07:53.061Z,100308.09
2019-03-18T09:12:00.442Z,100325.03
2019-03-18T09:16:18.450Z,100331.09
2019-03-18T09:20:26.469Z,100336.37
2019-03-18T09:24:37.815Z,100338.72
2019-03-18T09:29:08.957Z,100351.73
2019-03-18T09:33:25.370Z,100364.33
2019-03-18T09:37:29.433Z,100364.69
2019-03-18T09:41:34.894Z,100362.39
2019-03-18T09:45:43.233Z,100376.52
2019-03-18T09:49:48.458Z,100386.17
2019-03-18T09:53:52.368Z,100394.82
2019-03-18T09:57:56.390Z,100407.09
2019-03-18T10:02:02.027Z,100413.95
2019-03-18T10:06:05.901Z,100399.04
2019-03-18T10:10:14.201Z,100424.47
2019-03-18T10:14:20.840Z,100434.48
2019-03-18T10:18:24.470Z,100434.77
2019-03-18T10:22:28.420Z,100428.55
2019-03-18T10:26:32.250Z,100429.09
2019-03-18T10:30:38.595Z,100431.99
2019-03-18T10:34:42.430Z,100432.05
2019-03-18T10:38:46.287Z,100431.23
2019-03-18T10:42:52.221Z,100432.05
2019-03-18T10:47:02.861Z,100432.05
2019-03-18T10:51:13.881Z,100434.91
2019-03-18T10:55:18.066Z,100437.97
2019-03-18T10:59:25.219Z,100456.08
2019-03-18T11:08:08.494Z,100471.98
2019-03-18T11:12:16.140Z,100485.05
2019-03-18T11:16:20.175Z,100508.08
2019-03-18T11:20:24.059Z,100506.68
2019-03-18T11:24:27.615Z,100506.95
2019-03-18T11:28:31.130Z,100501.49
2019-03-18T11:32:37.140Z,100505.87
2019-03-18T11:36:42.216Z,100504.55
2019-03-18T11:40:53.253Z,100499.31
2019-03-18T11:45:00.491Z,100507.21
2019-03-18T11:49:15.199Z,100492.09
2019-03-18T11:53:23.251Z,100501.44
2019-03-18T11:57:57.258Z,100491.52
2019-03-18T12:02:02.486Z,100486.30
2019-03-18T12:06:19.421Z,100490.47
2019-03-18T12:10:26.235Z,100491.88
2019-03-18T12:14:34.514Z,100481.61
2019-03-18T12:18:38.059Z,100491.73
2019-03-18T12:22:41.907Z,100494.66
2019-03-18T12:26:45.531Z,100496.18
2019-03-18T12:30:53.962Z,100529.39
2019-03-18T12:34:59.060Z,100549.67
2019-03-18T12:39:02.679Z,100539.43
2019-03-18T12:43:09.576Z,100527.59
2019-03-18T12:47:16.221Z,100511.56
2019-03-18T12:51:32.935Z,100500.73
2019-03-18T12:55:35.241Z,100512.17
2019-03-18T12:59:38.859Z,100512.33
2019-03-18T13:03:42.577Z,100510.59
2019-03-18T13:07:51.163Z,100521.80
2019-03-18T13:11:54.727Z,100520.88
2019-03-18T13:15:59.792Z,100525.35
2019-03-18T13:20:06.053Z,100524.45
2019-03-18T13:24:10.768Z,100511.71
2019-03-18T13:28:16.385Z,100533.26
2019-03-18T13:32:20.309Z,100545.19
2019-03-18T13:36:25.507Z,100547.89
2019-03-18T13:40:30.046Z,100549.09
2019-03-18T13:44:33.761Z,100557.92
2019-03-18T13:48:37.310Z,100561.09
2019-03-18T13:52:40.981Z,100611.80
2019-03-18T13:56:44.673Z,100618.92
2019-03-18T14:00:49.130Z,100594.75
2019-03-18T14:04:54.043Z,100599.97
2019-03-18T14:08:59.703Z,100611.73
2019-03-18T14:13:05.321Z,100634.38
2019-03-18T14:17:12.094Z,100637.72
2019-03-18T14:21:19.078Z,100649.25
2019-03-18T14:25:22.980Z,100662.02
2019-03-18T14:29:29.534Z,100633.97
2019-03-18T14:33:38.180Z,100629.44
2019-03-18T14:37:44.131Z,100644.22
2019-03-18T14:41:47.760Z,100636.08
2019-03-18T14:45:52.165Z,100638.68
2019-03-18T14:49:57.465Z,100646.54
2019-03-18T14:54:01.073Z,100653.48
2019-03-18T14:58:04.666Z,100654.73
2019-03-18T15:02:08.219Z,100659.95
2019-03-18T15:06:11.875Z,100654.73
2019-03-18T15:10:21.031Z,100672.83
2019-03-18T15:14:26.262Z,100668.05
2019-03-18T15:18:30.000Z,100681.69
2019-03-18T15:22:33.770Z,100689.73
2019-03-18T15:26:37.258Z,100689.17
2019-03-18T15:30:41.109Z,100696.70
2019-03-18T15:34:44.825Z,100696.78
2019-03-18T15:38:48.623Z,100708.70
2019-03-18T15:42:52.298Z,100724.48
2019-03-18T15:46:56.377Z,100735.67
2019-03-18T15:51:04.313Z,100750.94
2019-03-18T15:55:11.814Z,100777.42
2019-03-18T15:59:15.492Z,100791.55
2019-03-18T16:03:19.237Z,100802.45
2019-03-18T16:07:23.060Z,100800.11
2019-03-18T16:11:33.703Z,100802.69
2019-03-18T16:15:37.443Z,100816.05
2019-03-18T16:19:43.566Z,100832.54
2019-03-18T16:23:48.810Z,100841.88
2019-03-18T16:27:52.782Z,100847.31
2019-03-18T16:31:56.776Z,100857.73
2019-03-18T16:36:01.667Z,100859.01
2019-03-18T16:40:08.695Z,100863.58
2019-03-18T16:44:14.198Z,100877.70
2019-03-18T16:48:18.100Z,100882.69
2019-03-18T16:52:21.571Z,100881.23
2019-03-18T16:56:25.266Z,100893.85
2019-03-18T17:00:29.126Z,100897.55
2019-03-18T17:04:34.692Z,100893.33
2019-03-18T17:08:38.530Z,100910.16
2019-03-18T17:12:42.524Z,100895.47
2019-03-18T17:16:51.906Z,100907.50
2019-03-18T17:20:55.542Z,100917.33
2019-03-18T17:24:59.359Z,100916.88
2019-03-18T17:29:02.921Z,100933.67
2019-03-18T17:33:06.422Z,100951.01
2019-03-18T17:37:11.835Z,100956.97
2019-03-18T17:41:15.369Z,100973.97
2019-03-18T17:45:19.355Z,100974.27
2019-03-18T17:49:23.008Z,100976.54
2019-03-18T17:53:26.813Z,100987.79
2019-03-18T17:57:30.365Z,100996.64
2019-03-18T18:01:58.415Z,101012.37
2019-03-18T18:06:07.950Z,101020.34
2019-03-18T18:10:26.615Z,101031.08
2019-03-18T18:24:11.387Z,101078.42
2019-03-18T18:28:16.017Z,101093.02
2019-03-18T18:32:19.570Z,101091.66
2019-03-18T18:36:25.278Z,101084.30
2019-03-18T18:40:30.667Z,101088.19
2019-03-18T18:44:34.345Z,101104.83
2019-03-18T18:48:37.870Z,101109.05
2019-03-18T18:52:51.352Z,101125.16
2019-03-18T18:56:55.053Z,101130.59
2019-03-18T19:00:58.805Z,101130.55
2019-03-18T19:05:04.051Z,101138.27
2019-03-18T19:09:13.511Z,101141.48
2019-03-18T19:13:17.888Z,101145.13
2019-03-18T19:17:24.025Z,101144.88
2019-03-18T19:21:27.536Z,101150.51
2019-03-18T19:25:32.904Z,101149.02
2019-03-18T19:29:36.510Z,101150.86
2019-03-18T19:33:40.039Z,101153.45
2019-03-18T19:37:46.894Z,101157.81
2019-03-18T19:41:50.538Z,101162.17
2019-03-18T19:45:56.707Z,101157.50
2019-03-18T19:50:00.231Z,101159.19
2019-03-18T19:54:03.828Z,101161.66
2019-03-18T19:58:09.360Z,101164.21
2019-03-18T20:02:13.312Z,101168.87
2019-03-18T20:06:16.939Z,101174.41
2019-03-18T20:10:21.680Z,101180.95
2019-03-18T20:14:26.683Z,101194.52
2019-03-18T20:18:30.199Z,101207.73
2019-03-18T20:22:33.786Z,101213.71
2019-03-18T20:26:40.218Z,101222.94
2019-03-18T20:30:49.023Z,101214.42
2019-03-18T20:34:54.565Z,101227.16
2019-03-18T20:39:01.342Z,101243.70
2019-03-18T20:43:05.035Z,101249.20
2019-03-18T20:47:08.665Z,101251.98
2019-03-18T20:51:12.715Z,101257.58
2019-03-18T20:55:17.128Z,101259.27
2019-03-18T20:59:20.795Z,101267.80
2019-03-18T21:03:24.381Z,101274.75
2019-03-18T21:07:28.511Z,101284.16
2019-03-18T21:11:32.109Z,101277.59
2019-03-18T21:15:50.346Z,101285.23
2019-03-18T21:19:54.023Z,101288.50
2019-03-18T21:23:57.546Z,101293.31
2019-03-18T21:28:01.012Z,101299.55
2019-03-18T21:32:04.696Z,101308.00
2019-03-18T21:36:08.460Z,101311.36
2019-03-18T21:40:19.202Z,101317.27
2019-03-18T21:44:24.354Z,101323.66
2019-03-18T21:48:27.952Z,101324.05
2019-03-18T21:52:31.482Z,101324.25
2019-03-18T21:56:35.160Z,101326.80
2019-03-18T22:00:38.695Z,101331.95
2019-03-18T22:04:42.319Z,101327.05
2019-03-18T22:08:46.883Z,101328.84
2019-03-18T22:12:53.076Z,101327.42
2019-03-18T22:16:56.603Z,101329.75
2019-03-18T22:21:01.395Z,101330.97
2019-03-18T22:25:07.147Z,101341.47
2019-03-18T22:29:21.044Z,101345.56
2019-03-18T22:33:26.271Z,101346.73
2019-03-18T22:37:29.802Z,101352.99
2019-03-18T22:41:34.950Z,101349.32
2019-03-18T22:45:42.239Z,101366.81
2019-03-18T22:49:45.953Z,101369.97
2019-03-18T22:53:49.601Z,101366.72
2019-03-18T22:57:55.635Z,101363.56
2019-03-18T23:01:59.427Z,101371.84
2019-03-18T23:06:04.545Z,101376.34
2019-03-18T23:10:10.379Z,101374.15
2019-03-18T23:14:13.879Z,101389.72
2019-03-18T23:18:23.456Z,101397.44
2019-03-18T23:22:27.419Z,101400.36
2019-03-18T23:26:30.939Z,101399.83
2019-03-18T23:30:34.430Z,101409.25
2019-03-18T23:34:39.163Z,101414.13
2019-03-18T23:38:42.805Z,101420.53
2019-03-18T23:42:46.433Z,101423.70
2019-03-18T23:46:49.986Z,101423.95
2019-03-18T23:50:54.145Z,101423.51
2019-03-18T23:54:57.775Z,101421.98
2019-03-18T23:59:04.448Z,101426.64
